Time;durP1;ratioP1;P1;durP2;ratioP2;P2;SDS_P1;SDS_P2;PMS_P1;PMS_P2;Temp;Humidity;BMP_temperature;BMP_pressure;BME280_temperature;BME280_humidity;BME280_pressure;Samples;Min_cycle;Max_cycle;Signal;HPM_P1;HPM_P2
2023/08/18 00:01:50;;;;;;;18.80;13.68;;;18.80;99.90;;;;;;5011227;28;20204;-81
2023/08/18 00:04:17;;;;;;;18.42;14.07;;;18.70;99.90;;;;;;5032587;28;20552;-82
2023/08/18 00:06:45;;;;;;;22.42;16.13;;;18.70;99.90;;;;;;5024511;28;20209;-82
2023/08/18 00:09:14;;;;;;;22.48;16.20;;;18.80;99.90;;;;;;5023680;28;20202;-82
2023/08/18 00:11:41;;;;;;;25.83;17.85;;;18.70;99.90;;;;;;5006093;28;20204;-82
2023/08/18 00:14:08;;;;;;;29.67;21.63;;;18.60;99.90;;;;;;5015793;28;20561;-82
2023/08/18 00:16:36;;;;;;;29.77;21.23;;;18.40;99.90;;;;;;5020397;28;20222;-82
2023/08/18 00:19:04;;;;;;;33.15;23.38;;;18.50;99.90;;;;;;5024837;28;20210;-82
2023/08/18 00:21:31;;;;;;;33.58;25.05;;;18.50;99.90;;;;;;5007394;28;20570;-82
2023/08/18 00:23:59;;;;;;;32.83;24.40;;;18.50;99.90;;;;;;5033054;28;20231;-82
2023/08/18 00:26:28;;;;;;;29.33;21.98;;;18.50;99.90;;;;;;5033764;28;20554;-82
2023/08/18 00:28:55;;;;;;;30.33;21.15;;;18.60;99.90;;;;;;5012448;28;20196;-82
2023/08/18 00:31:23;;;;;;;30.55;22.05;;;18.70;99.90;;;;;;5029328;28;20222;-82
2023/08/18 00:33:51;;;;;;;28.13;20.45;;;18.60;99.90;;;;;;5028495;28;20558;-82
2023/08/18 00:36:18;;;;;;;26.98;20.95;;;18.60;99.90;;;;;;5011348;28;20207;-82
2023/08/18 00:38:46;;;;;;;24.15;17.98;;;18.60;99.90;;;;;;5005078;28;20206;-82
2023/08/18 00:41:13;;;;;;;22.38;16.98;;;18.40;99.90;;;;;;5005546;28;20226;-82
2023/08/18 00:43:42;;;;;;;23.23;17.15;;;18.40;99.90;;;;;;5006293;28;20559;-82
2023/08/18 00:46:10;;;;;;;22.67;16.60;;;18.50;99.90;;;;;;5006121;28;20195;-82
2023/08/18 00:48:39;;;;;;;22.58;17.70;;;18.40;99.90;;;;;;5007668;28;20575;-81
2023/08/18 00:51:10;;;;;;;22.95;16.98;;;18.40;99.90;;;;;;5011313;28;20219;-83
2023/08/18 00:53:39;;;;;;;25.25;18.20;;;18.30;99.90;;;;;;5016673;28;20199;-82
2023/08/18 00:56:07;;;;;;;22.40;16.38;;;18.40;99.90;;;;;;5020574;28;20206;-82
2023/08/18 00:58:34;;;;;;;24.20;16.65;;;18.30;99.90;;;;;;5020538;28;20206;-82
2023/08/18 01:01:04;;;;;;;23.55;16.83;;;18.40;99.90;;;;;;5017361;28;20214;-82
2023/08/18 01:03:32;;;;;;;22.85;17.02;;;18.40;99.90;;;;;;5031810;28;20222;-82
2023/08/18 01:05:59;;;;;;;24.88;18.63;;;18.40;99.90;;;;;;5030331;28;20198;-81
2023/08/18 01:08:29;;;;;;;25.77;18.05;;;18.40;99.90;;;;;;5028543;28;20202;-82
2023/08/18 01:11:06;;;;;;;24.70;17.42;;;18.50;99.90;;;;;;5013934;28;20231;-82
2023/08/18 01:13:43;;;;;;;25.42;18.38;;;18.50;99.90;;;;;;5040546;28;20191;-82
2023/08/18 01:16:16;;;;;;;25.15;17.88;;;18.50;99.90;;;;;;5019639;28;20194;-82
2023/08/18 01:18:45;;;;;;;25.17;16.08;;;18.50;99.90;;;;;;5013198;28;20199;-81
2023/08/18 01:21:12;;;;;;;24.25;17.02;;;18.50;99.90;;;;;;5028499;28;20223;-82
2023/08/18 01:23:43;;;;;;;22.42;15.25;;;18.50;99.90;;;;;;5018274;28;20210;-82
2023/08/18 01:26:10;;;;;;;23.30;16.05;;;18.60;99.90;;;;;;5010839;28;20191;-82
2023/08/18 01:28:38;;;;;;;21.17;16.52;;;18.60;99.90;;;;;;5016451;28;20218;-83
2023/08/18 01:31:10;;;;;;;20.70;15.32;;;18.50;99.90;;;;;;5019788;28;20230;-82
2023/08/18 01:33:44;;;;;;;23.05;17.20;;;18.60;99.90;;;;;;5031328;28;20199;-83
2023/08/18 01:36:15;;;;;;;22.80;17.10;;;18.60;99.90;;;;;;5019879;28;20242;-83
2023/08/18 01:38:45;;;;;;;24.55;18.40;;;18.50;99.90;;;;;;5014983;28;20210;-83
2023/08/18 01:41:15;;;;;;;29.73;20.33;;;18.50;99.90;;;;;;5025305;28;20218;-82
2023/08/18 01:43:43;;;;;;;24.30;18.63;;;18.40;99.90;;;;;;5040242;28;20220;-81
2023/08/18 01:46:11;;;;;;;30.55;20.27;;;18.40;99.90;;;;;;5019127;28;20203;-82
2023/08/18 01:48:39;;;;;;;25.63;18.58;;;18.40;99.90;;;;;;5014255;28;20202;-81
2023/08/18 01:51:06;;;;;;;29.58;19.45;;;18.50;99.90;;;;;;5017563;28;20222;-81
2023/08/18 01:53:50;;;;;;;28.60;20.05;;;18.50;99.90;;;;;;5007940;28;20191;-82
2023/08/18 01:56:17;;;;;;;29.42;20.73;;;18.50;99.90;;;;;;5016457;28;20199;-82
2023/08/18 01:58:45;;;;;;;32.28;22.20;;;18.50;99.90;;;;;;5010876;28;20198;-82
2023/08/18 02:01:13;;;;;;;31.85;21.75;;;18.50;99.90;;;;;;5022021;28;20226;-82
2023/08/18 02:03:41;;;;;;;31.85;21.83;;;18.60;99.90;;;;;;5015454;28;20234;-82
2023/08/18 02:06:08;;;;;;;32.22;22.08;;;18.60;99.90;;;;;;5028791;28;20203;-82
2023/08/18 02:08:37;;;;;;;37.08;23.58;;;18.50;99.90;;;;;;5023910;28;20214;-82
2023/08/18 02:11:06;;;;;;;36.63;23.15;;;18.50;99.90;;;;;;5012501;28;20230;-82
2023/08/18 02:13:35;;;;;;;37.13;24.50;;;18.40;99.90;;;;;;5010596;28;20203;-83
2023/08/18 02:16:03;;;;;;;41.17;24.63;;;18.40;99.90;;;;;;5019049;28;20201;-82
2023/08/18 02:18:32;;;;;;;41.45;25.63;;;18.40;99.90;;;;;;5016043;28;20214;-82
2023/08/18 02:21:00;;;;;;;37.50;25.45;;;18.50;99.90;;;;;;5037582;28;20889;-81
2023/08/18 02:23:30;;;;;;;39.60;25.48;;;18.50;99.90;;;;;;5027071;28;20226;-82
2023/08/18 02:26:02;;;;;;;42.65;28.15;;;18.50;99.90;;;;;;5012588;28;20195;-82
2023/08/18 02:28:31;;;;;;;41.03;26.25;;;18.40;99.90;;;;;;5031221;28;20202;-82
2023/08/18 02:31:01;;;;;;;45.35;28.10;;;18.50;99.90;;;;;;5011513;28;20230;-82
2023/08/18 02:33:30;;;;;;;42.95;26.55;;;18.50;99.90;;;;;;5017155;28;20187;-82
2023/08/18 02:35:58;;;;;;;48.30;27.48;;;18.60;99.90;;;;;;5040234;28;20199;-82
2023/08/18 02:38:26;;;;;;;40.65;26.08;;;18.60;99.90;;;;;;5015734;28;20206;-81
2023/08/18 02:40:54;;;;;;;43.60;26.52;;;18.50;99.90;;;;;;5014450;28;20226;-83
2023/08/18 02:43:23;;;;;;;41.70;25.88;;;18.70;99.90;;;;;;5014006;28;20199;-82
2023/08/18 02:45:55;;;;;;;42.75;27.52;;;18.60;99.90;;;;;;5013713;28;20207;-82
2023/08/18 02:48:22;;;;;;;45.72;27.40;;;18.50;99.90;;;;;;5029994;28;20203;-81
2023/08/18 02:50:50;;;;;;;41.53;25.70;;;18.50;99.90;;;;;;5009681;28;20215;-82
2023/08/18 02:53:35;;;;;;;42.97;25.73;;;18.50;99.90;;;;;;5008482;28;20199;-82
2023/08/18 02:56:02;;;;;;;43.03;25.80;;;18.40;99.90;;;;;;5009468;28;20584;-82
2023/08/18 02:58:32;;;;;;;42.45;25.73;;;18.40;99.90;;;;;;5015740;28;20214;-82
2023/08/18 03:01:04;;;;;;;39.33;25.75;;;18.30;99.90;;;;;;5005385;28;20218;-82
2023/08/18 03:03:33;;;;;;;42.80;25.58;;;18.50;99.90;;;;;;5029986;28;20202;-82
2023/08/18 03:06:03;;;;;;;38.97;24.90;;;18.50;99.90;;;;;;5025980;28;20700;-82
2023/08/18 03:08:32;;;;;;;40.15;24.73;;;18.40;99.90;;;;;;5011888;28;20570;-82
2023/08/18 03:11:01;;;;;;;41.95;24.65;;;18.40;99.90;;;;;;5014341;28;20241;-83
2023/08/18 03:13:29;;;;;;;37.42;22.77;;;18.40;99.90;;;;;;5022035;28;20194;-82
2023/08/18 03:15:55;;;;;;;37.08;23.00;;;18.40;99.90;;;;;;5016310;28;20213;-82
2023/08/18 03:18:24;;;;;;;37.65;23.65;;;18.30;99.90;;;;;;5016092;28;20575;-81
2023/08/18 03:20:59;;;;;;;35.60;22.40;;;18.50;99.90;;;;;;5017310;28;20219;-83
2023/08/18 03:23:27;;;;;;;36.42;21.77;;;18.40;99.90;;;;;;5025065;28;20194;-83
2023/08/18 03:26:00;;;;;;;32.97;22.63;;;18.40;99.90;;;;;;5014738;28;20203;-82
2023/08/18 03:28:28;;;;;;;30.85;21.75;;;18.40;99.90;;;;;;5030258;28;20572;-82
2023/08/18 03:30:59;;;;;;;35.05;22.13;;;18.40;99.90;;;;;;5018227;28;20222;-82
2023/08/18 03:33:29;;;;;;;34.20;21.90;;;18.30;99.90;;;;;;5010866;28;20214;-82
2023/08/18 03:35:57;;;;;;;37.55;22.95;;;18.30;99.90;;;;;;5014035;28;20660;-82
2023/08/18 03:38:25;;;;;;;28.70;19.33;;;18.30;99.90;;;;;;5013417;28;20202;-82
2023/08/18 03:40:59;;;;;;;29.48;19.42;;;18.30;99.90;;;;;;5016731;28;20238;-82
2023/08/18 03:43:26;;;;;;;29.08;20.25;;;18.30;99.90;;;;;;5031676;28;20660;-82
2023/08/18 03:45:54;;;;;;;27.30;19.58;;;18.20;99.90;;;;;;5020729;28;20234;-82
2023/08/18 03:48:22;;;;;;;26.55;18.98;;;18.30;99.90;;;;;;5022795;28;20209;-82
2023/08/18 03:50:51;;;;;;;28.95;19.05;;;18.30;99.90;;;;;;5011902;28;20220;-82
2023/08/18 03:53:21;;;;;;;30.25;20.75;;;18.20;99.90;;;;;;5016892;28;20207;-82
2023/08/18 03:55:52;;;;;;;29.63;19.90;;;18.10;99.90;;;;;;5010406;28;20676;-82
2023/08/18 03:58:19;;;;;;;30.13;20.55;;;18.10;99.90;;;;;;5017772;28;20198;-82
2023/08/18 04:00:47;;;;;;;33.47;21.38;;;18.10;99.90;;;;;;5014729;28;20227;-82
2023/08/18 04:03:15;;;;;;;27.33;19.15;;;18.10;99.90;;;;;;5024447;28;20198;-83
2023/08/18 04:05:46;;;;;;;33.92;20.20;;;18.20;99.90;;;;;;5026090;28;20218;-82
2023/08/18 04:08:15;;;;;;;32.22;21.85;;;18.30;99.90;;;;;;5020186;28;20647;-82
2023/08/18 04:10:43;;;;;;;36.38;23.05;;;18.30;99.90;;;;;;5015239;28;20230;-82
2023/08/18 04:13:10;;;;;;;35.17;23.15;;;18.30;99.90;;;;;;5013222;28;20557;-82
2023/08/18 04:15:41;;;;;;;42.38;23.42;;;18.30;99.90;;;;;;5027676;28;20199;-83
2023/08/18 04:18:08;;;;;;;37.40;23.40;;;18.30;99.90;;;;;;5010698;28;20197;-82
2023/08/18 04:20:36;;;;;;;35.75;23.48;;;18.20;99.90;;;;;;5013732;28;20223;-82
2023/08/18 04:23:04;;;;;;;35.72;22.73;;;18.20;99.90;;;;;;5010407;28;20203;-82
2023/08/18 04:25:33;;;;;;;30.50;20.73;;;18.20;99.90;;;;;;5019968;28;20222;-82
2023/08/18 04:28:00;;;;;;;32.88;21.42;;;18.20;99.90;;;;;;5021430;28;20214;-82
2023/08/18 04:30:28;;;;;;;34.20;22.83;;;18.30;99.90;;;;;;5033237;28;20222;-82
2023/08/18 04:32:55;;;;;;;33.17;22.83;;;18.30;99.90;;;;;;5018360;28;20211;-82
2023/08/18 04:35:22;;;;;;;36.58;23.77;;;18.30;99.90;;;;;;5021043;28;20210;-82
2023/08/18 04:37:50;;;;;;;30.40;20.38;;;18.30;99.90;;;;;;5021830;28;20196;-82
2023/08/18 04:40:18;;;;;;;37.72;24.08;;;18.40;99.90;;;;;;5040117;28;20225;-82
2023/08/18 04:42:47;;;;;;;34.10;22.00;;;18.30;99.90;;;;;;5033483;28;20222;-81
2023/08/18 04:45:14;;;;;;;35.45;23.02;;;18.30;99.90;;;;;;5021216;28;20226;-82
2023/08/18 04:47:42;;;;;;;34.47;22.75;;;18.40;99.90;;;;;;5029674;28;20673;-82
2023/08/18 04:50:10;;;;;;;37.35;23.60;;;18.40;99.90;;;;;;5015113;28;20227;-82
2023/08/18 04:52:38;;;;;;;41.72;24.52;;;18.40;99.90;;;;;;5032677;28;20199;-82
2023/08/18 04:55:06;;;;;;;41.08;23.35;;;18.30;99.90;;;;;;5032408;28;20187;-82
2023/08/18 04:57:34;;;;;;;40.60;24.13;;;18.30;99.90;;;;;;5021528;28;20206;-82
2023/08/18 05:00:05;;;;;;;41.60;24.88;;;18.30;99.90;;;;;;5019561;28;20245;-81
2023/08/18 05:02:32;;;;;;;41.47;23.48;;;18.30;99.90;;;;;;5015327;28;20681;-82
2023/08/18 05:05:00;;;;;;;44.63;26.35;;;18.20;99.90;;;;;;5016237;28;20238;-83
2023/08/18 05:07:27;;;;;;;39.50;24.55;;;18.10;99.90;;;;;;5019620;28;20221;-82
2023/08/18 05:09:55;;;;;;;40.10;24.52;;;18.10;99.90;;;;;;5022741;28;20230;-82
2023/08/18 05:12:33;;;;;;;28.55;19.35;;;18.40;99.90;;;;;;5019800;28;20203;-81
2023/08/18 05:15:01;;;;;;;39.92;23.73;;;18.70;99.90;;;;;;5015880;28;20198;-82
2023/08/18 05:17:30;;;;;;;39.00;23.10;;;18.70;99.90;;;;;;5027391;28;20206;-81
2023/08/18 05:19:57;;;;;;;36.45;23.58;;;18.60;99.90;;;;;;5018806;28;20229;-82
2023/08/18 05:22:24;;;;;;;38.10;23.92;;;18.60;99.90;;;;;;5025222;28;20202;-82
2023/08/18 05:24:53;;;;;;;35.55;22.33;;;18.70;99.90;;;;;;5017943;28;20584;-83
2023/08/18 05:27:20;;;;;;;33.75;20.27;;;18.70;99.90;;;;;;5024376;28;20207;-82
2023/08/18 05:29:51;;;;;;;32.10;21.17;;;18.80;99.90;;;;;;5019968;28;20590;-82
2023/08/18 05:32:20;;;;;;;35.65;21.83;;;18.80;99.90;;;;;;5020299;28;20203;-82
2023/08/18 05:34:53;;;;;;;36.90;22.73;;;18.80;99.90;;;;;;5023171;28;20208;-81
2023/08/18 05:37:20;;;;;;;36.55;22.05;;;18.60;99.90;;;;;;5022257;28;20207;-82
2023/08/18 05:39:48;;;;;;;34.08;21.92;;;18.30;99.90;;;;;;5018350;28;20227;-82
2023/08/18 05:42:15;;;;;;;28.40;18.67;;;18.50;99.90;;;;;;5034383;28;20210;-84
2023/08/18 05:44:43;;;;;;;26.95;18.92;;;18.70;99.90;;;;;;5021144;28;20206;-81
2023/08/18 05:47:11;;;;;;;27.40;19.13;;;18.40;99.90;;;;;;5008699;28;20211;-82
2023/08/18 05:49:38;;;;;;;29.48;20.15;;;18.40;99.90;;;;;;5030635;28;20223;-82
2023/08/18 05:52:07;;;;;;;27.85;18.85;;;18.40;99.90;;;;;;5013343;28;20204;-82
2023/08/18 05:54:34;;;;;;;27.88;18.55;;;18.30;99.90;;;;;;5010175;28;20207;-82
2023/08/18 05:57:02;;;;;;;23.33;16.40;;;18.50;99.90;;;;;;5011693;28;20206;-82
2023/08/18 05:59:32;;;;;;;22.05;15.48;;;18.90;99.90;;;;;;5019281;28;20245;-82
2023/08/18 06:01:59;;;;;;;24.23;17.50;;;19.10;99.90;;;;;;5023213;28;20215;-82
2023/08/18 06:04:26;;;;;;;22.27;15.43;;;19.00;99.90;;;;;;5012927;28;20210;-81
2023/08/18 06:07:12;;;;;;;22.77;17.25;;;19.00;99.90;;;;;;5030223;28;20226;-82
2023/08/18 06:09:39;;;;;;;22.52;15.80;;;19.00;99.90;;;;;;5014836;28;20227;-82
2023/08/18 06:12:07;;;;;;;20.83;15.15;;;19.00;99.90;;;;;;5013846;28;20207;-82
2023/08/18 06:14:34;;;;;;;22.08;14.18;;;18.90;99.90;;;;;;5013722;28;20218;-82
2023/08/18 06:17:02;;;;;;;20.67;14.77;;;18.90;99.90;;;;;;5014108;28;20210;-83
2023/08/18 06:19:29;;;;;;;19.50;14.38;;;19.00;99.90;;;;;;5015140;28;20692;-82
2023/08/18 06:21:56;;;;;;;18.58;15.20;;;18.90;99.90;;;;;;5012522;28;20210;-82
2023/08/18 06:24:25;;;;;;;21.70;15.52;;;18.90;99.90;;;;;;5003252;28;20200;-82
2023/08/18 06:26:53;;;;;;;21.15;14.43;;;18.80;99.90;;;;;;5012714;28;20212;-82
2023/08/18 06:29:20;;;;;;;25.90;17.08;;;18.80;99.90;;;;;;5001046;28;20933;-82
2023/08/18 06:31:48;;;;;;;26.00;17.83;;;18.80;99.90;;;;;;5022504;28;20560;-80
2023/08/18 06:34:15;;;;;;;20.35;14.90;;;18.80;99.90;;;;;;5007880;28;20212;-81
2023/08/18 06:36:43;;;;;;;23.30;16.38;;;18.50;99.90;;;;;;5012980;28;20204;-81
2023/08/18 06:39:10;;;;;;;22.67;15.50;;;18.70;99.90;;;;;;5022569;28;20564;-81
2023/08/18 06:41:39;;;;;;;21.70;15.00;;;18.50;99.90;;;;;;5015018;28;20204;-81
2023/08/18 06:44:07;;;;;;;17.60;12.93;;;18.60;99.90;;;;;;5010765;28;20199;-80
2023/08/18 06:46:34;;;;;;;19.38;13.52;;;18.50;99.90;;;;;;5030973;28;20229;-81
2023/08/18 06:49:04;;;;;;;20.80;13.85;;;18.40;99.90;;;;;;5004610;28;20226;-82
2023/08/18 06:51:31;;;;;;;21.63;13.85;;;18.30;99.90;;;;;;5017316;28;20203;-81
2023/08/18 06:53:59;;;;;;;20.02;15.00;;;18.60;99.90;;;;;;5009802;28;20203;-82
2023/08/18 06:56:26;;;;;;;19.38;13.60;;;18.80;99.90;;;;;;5034775;28;20191;-82
2023/08/18 06:58:55;;;;;;;18.00;13.35;;;18.70;99.90;;;;;;5007312;28;20211;-82
2023/08/18 07:01:23;;;;;;;14.88;11.50;;;18.70;99.90;;;;;;5029891;28;20206;-82
2023/08/18 07:03:50;;;;;;;18.92;15.05;;;18.90;99.90;;;;;;5015915;28;20204;-83
2023/08/18 07:06:18;;;;;;;15.90;13.15;;;18.80;99.90;;;;;;5014814;28;20215;-82
2023/08/18 07:08:45;;;;;;;13.82;11.68;;;18.60;99.90;;;;;;5009093;28;20660;-82
2023/08/18 07:11:13;;;;;;;15.10;11.13;;;18.70;99.90;;;;;;5003292;28;20236;-82
2023/08/18 07:13:40;;;;;;;15.50;11.45;;;18.80;99.90;;;;;;5013565;28;20203;-82
2023/08/18 07:16:10;;;;;;;15.55;11.52;;;18.80;99.90;;;;;;5007353;28;20191;-82
2023/08/18 07:18:44;;;;;;;15.52;12.00;;;18.80;99.90;;;;;;5010332;28;20195;-81
2023/08/18 07:21:15;;;;;;;17.13;12.93;;;18.90;99.90;;;;;;5011424;28;20226;-83
2023/08/18 07:23:42;;;;;;;13.65;10.02;;;18.80;99.90;;;;;;5010414;28;20199;-83
2023/08/18 07:26:10;;;;;;;15.25;10.85;;;19.00;99.90;;;;;;5009477;28;20214;-83
2023/08/18 07:28:37;;;;;;;16.23;12.35;;;19.20;99.90;;;;;;5019619;28;20207;-82
2023/08/18 07:31:05;;;;;;;16.70;12.02;;;19.30;99.90;;;;;;5030759;28;20223;-83
2023/08/18 07:33:34;;;;;;;22.63;16.00;;;19.40;99.90;;;;;;5028997;28;20215;-83
2023/08/18 07:36:02;;;;;;;16.63;11.93;;;19.00;99.90;;;;;;5017674;28;20200;-83
2023/08/18 07:38:33;;;;;;;16.83;12.90;;;19.20;99.90;;;;;;5031727;28;20191;-83
2023/08/18 07:41:00;;;;;;;20.17;14.13;;;19.50;99.90;;;;;;5013604;28;20226;-85
2023/08/18 07:43:28;;;;;;;20.67;16.48;;;19.50;99.90;;;;;;5012757;28;20207;-84
2023/08/18 07:45:56;;;;;;;23.65;16.77;;;19.40;99.90;;;;;;5030208;28;20214;-84
2023/08/18 07:48:24;;;;;;;22.20;17.73;;;19.40;99.90;;;;;;5010921;28;20201;-85
2023/08/18 07:50:53;;;;;;;24.40;17.42;;;19.30;99.90;;;;;;5011442;28;20681;-82
2023/08/18 07:53:20;;;;;;;24.25;18.33;;;19.40;99.90;;;;;;5024100;28;20203;-86
2023/08/18 07:55:50;;;;;;;22.88;18.27;;;19.50;99.90;;;;;;5023120;28;20202;-85
2023/08/18 07:58:17;;;;;;;24.58;18.40;;;19.60;99.90;;;;;;5008613;28;20200;-85
2023/08/18 08:00:47;;;;;;;23.00;17.05;;;19.60;99.90;;;;;;5010592;28;20234;-85
2023/08/18 08:03:15;;;;;;;21.40;16.13;;;19.60;99.90;;;;;;5017055;28;20206;-85
2023/08/18 08:05:44;;;;;;;19.70;16.20;;;19.70;99.90;;;;;;5022661;28;20211;-84
2023/08/18 08:08:14;;;;;;;20.73;17.35;;;19.80;99.90;;;;;;5020450;28;20195;-84
2023/08/18 08:10:41;;;;;;;20.08;15.20;;;19.80;99.90;;;;;;5024821;28;20231;-84
2023/08/18 08:13:08;;;;;;;27.58;20.35;;;19.60;99.90;;;;;;5029173;28;20201;-82
2023/08/18 08:15:36;;;;;;;27.15;20.58;;;19.40;99.90;;;;;;5009403;28;20199;-81
2023/08/18 08:18:04;;;;;;;27.00;19.48;;;19.50;99.90;;;;;;5028466;28;20784;-82
2023/08/18 08:20:31;;;;;;;29.00;21.25;;;19.70;99.90;;;;;;5014426;28;20230;-82
2023/08/18 08:22:59;;;;;;;37.65;25.65;;;19.60;99.90;;;;;;5023610;28;20202;-82
2023/08/18 08:25:27;;;;;;;32.30;24.33;;;19.70;99.90;;;;;;5015582;28;20202;-82
2023/08/18 08:27:55;;;;;;;32.47;23.58;;;19.60;99.90;;;;;;5016815;28;20218;-83
2023/08/18 08:30:22;;;;;;;31.08;22.15;;;19.60;99.90;;;;;;5016830;28;20219;-83
2023/08/18 08:32:50;;;;;;;29.08;22.52;;;19.90;99.90;;;;;;5017474;28;20598;-84
2023/08/18 08:35:17;;;;;;;29.95;23.30;;;19.80;99.90;;;;;;5016948;28;20203;-83
2023/08/18 08:37:45;;;;;;;30.98;23.60;;;19.80;99.90;;;;;;5016650;28;20195;-83
2023/08/18 08:40:18;;;;;;;28.75;23.38;;;19.90;99.90;;;;;;5034265;28;20218;-83
2023/08/18 08:42:48;;;;;;;30.02;23.42;;;19.70;99.90;;;;;;5017608;28;20210;-84
2023/08/18 08:45:16;;;;;;;30.40;22.90;;;20.00;99.90;;;;;;5017021;28;20205;-84
2023/08/18 08:47:43;;;;;;;34.80;25.52;;;20.00;99.90;;;;;;5016521;28;20222;-83
2023/08/18 08:50:12;;;;;;;29.40;23.83;;;20.00;99.90;;;;;;5017247;28;20557;-83
2023/08/18 08:52:40;;;;;;;25.80;21.35;;;19.60;99.90;;;;;;5017778;28;20567;-83
2023/08/18 08:55:08;;;;;;;27.27;22.35;;;20.00;99.90;;;;;;5012950;28;20567;-83
2023/08/18 08:57:36;;;;;;;30.27;23.27;;;19.90;99.90;;;;;;5016859;28;20207;-83
2023/08/18 09:00:06;;;;;;;27.63;22.17;;;20.00;99.90;;;;;;5035121;28;20203;-83
2023/08/18 09:02:34;;;;;;;32.13;24.17;;;20.00;99.90;;;;;;5018125;28;20195;-83
2023/08/18 09:05:01;;;;;;;27.35;21.92;;;20.10;99.90;;;;;;5016430;28;20202;-83
2023/08/18 09:07:29;;;;;;;28.83;22.58;;;20.30;99.90;;;;;;5016508;28;20226;-83
2023/08/18 09:09:57;;;;;;;27.15;22.38;;;20.20;99.90;;;;;;5017006;28;20226;-83
2023/08/18 09:12:28;;;;;;;25.83;21.80;;;20.10;99.90;;;;;;5017533;28;20199;-83
2023/08/18 09:14:56;;;;;;;28.83;23.23;;;20.30;99.90;;;;;;5021169;28;20195;-83
2023/08/18 09:17:27;;;;;;;30.83;24.20;;;20.10;99.90;;;;;;5014053;28;20203;-83
2023/08/18 09:19:57;;;;;;;28.13;23.67;;;20.10;99.90;;;;;;5019044;28;20246;-83
2023/08/18 09:22:25;;;;;;;26.95;21.98;;;20.10;99.90;;;;;;5040712;28;20695;-83
2023/08/18 09:24:56;;;;;;;27.40;24.25;;;20.30;99.90;;;;;;5027788;28;20202;-82
2023/08/18 09:27:25;;;;;;;28.98;24.15;;;20.40;99.90;;;;;;5024182;28;20207;-85
2023/08/18 09:29:58;;;;;;;33.67;26.40;;;20.40;99.90;;;;;;5015817;28;20595;-83
2023/08/18 09:32:28;;;;;;;28.95;24.80;;;20.60;99.90;;;;;;5008302;28;20195;-83
2023/08/18 09:34:56;;;;;;;34.10;25.75;;;20.70;99.90;;;;;;5033230;28;20199;-83
2023/08/18 09:37:30;;;;;;;29.55;24.38;;;20.70;99.90;;;;;;5015488;28;20198;-86
2023/08/18 09:39:58;;;;;;;36.83;28.52;;;20.50;99.90;;;;;;5032858;28;20716;-86
2023/08/18 09:42:26;;;;;;;31.42;26.58;;;20.60;99.90;;;;;;5016845;28;20199;-85
2023/08/18 09:44:54;;;;;;;31.77;26.45;;;20.40;99.90;;;;;;5033977;28;20552;-84
2023/08/18 09:47:23;;;;;;;30.13;25.90;;;20.30;99.90;;;;;;5015807;28;20219;-84
2023/08/18 09:49:53;;;;;;;26.40;23.52;;;20.60;99.90;;;;;;5014407;28;20234;-83
2023/08/18 09:52:28;;;;;;;26.05;23.25;;;20.80;99.90;;;;;;5017384;28;20203;-83
2023/08/18 09:55:04;;;;;;;26.55;23.45;;;20.90;99.90;;;;;;5021721;28;20199;-83
2023/08/18 09:57:37;;;;;;;27.40;24.60;;;21.00;99.90;;;;;;5013962;28;20202;-83
2023/08/18 10:00:08;;;;;;;25.17;22.55;;;21.00;99.90;;;;;;5023090;28;20214;-83
2023/08/18 10:02:44;;;;;;;23.83;21.35;;;20.90;99.90;;;;;;5039016;28;20198;-83
2023/08/18 10:05:15;;;;;;;24.60;22.10;;;21.00;99.90;;;;;;5018569;28;20218;-83
2023/08/18 10:07:43;;;;;;;22.75;20.48;;;21.10;99.90;;;;;;5018565;28;20214;-83
2023/08/18 10:10:11;;;;;;;22.60;20.45;;;21.10;99.90;;;;;;5018256;28;20235;-84
2023/08/18 10:12:39;;;;;;;20.77;18.67;;;21.20;99.90;;;;;;5018744;28;20203;-84
2023/08/18 10:15:08;;;;;;;20.38;18.38;;;21.40;99.90;;;;;;5018869;28;20198;-83
2023/08/18 10:17:35;;;;;;;18.33;16.38;;;21.60;99.90;;;;;;5018162;28;20559;-83
2023/08/18 10:20:03;;;;;;;17.85;16.02;;;21.70;99.90;;;;;;5015186;28;20242;-84
2023/08/18 10:22:35;;;;;;;17.85;16.08;;;21.80;99.90;;;;;;4999404;28;20199;-83
2023/08/18 10:25:04;;;;;;;19.20;17.27;;;21.90;99.90;;;;;;5014639;28;20203;-83
2023/08/18 10:27:38;;;;;;;19.77;17.88;;;21.90;99.90;;;;;;4999011;28;20223;-83
2023/08/18 10:30:29;;;;;;;21.40;19.23;;;21.60;99.90;;;;;;5000049;28;20222;-83
2023/08/18 10:33:06;;;;;;;20.48;18.48;;;21.60;99.90;;;;;;4999908;28;20215;-83
2023/08/18 10:35:39;;;;;;;18.00;16.17;;;21.90;99.90;;;;;;5030281;28;20198;-83
2023/08/18 10:38:08;;;;;;;16.30;14.65;;;22.10;99.90;;;;;;5054273;28;20194;-83
2023/08/18 10:40:37;;;;;;;15.82;14.20;;;22.10;99.90;;;;;;5039484;28;20222;-83
2023/08/18 10:43:07;;;;;;;14.88;13.32;;;22.30;99.90;;;;;;5038502;28;20198;-83
2023/08/18 10:45:35;;;;;;;14.45;13.07;;;22.30;99.90;;;;;;5038590;28;20205;-83
2023/08/18 10:48:04;;;;;;;14.07;12.65;;;22.10;99.90;;;;;;5055331;28;20222;-83
2023/08/18 10:50:34;;;;;;;13.63;12.23;;;22.20;99.90;;;;;;5038111;28;20218;-83
2023/08/18 10:53:04;;;;;;;14.30;12.90;;;22.20;99.90;;;;;;5038075;28;20202;-83
2023/08/18 10:55:33;;;;;;;15.13;13.20;;;22.40;99.90;;;;;;5037477;28;20198;-83
2023/08/18 10:58:00;;;;;;;14.07;12.68;;;22.40;99.90;;;;;;5055579;28;20187;-84
2023/08/18 11:00:32;;;;;;;15.10;13.65;;;22.50;99.90;;;;;;5036936;28;20218;-84
2023/08/18 11:03:00;;;;;;;20.92;18.83;;;22.80;99.90;;;;;;5037270;28;20206;-83
2023/08/18 11:05:30;;;;;;;21.33;19.13;;;22.60;99.90;;;;;;5022619;28;20692;-83
2023/08/18 11:07:58;;;;;;;20.45;18.45;;;22.70;99.90;;;;;;5017757;28;20215;-83
2023/08/18 11:10:26;;;;;;;20.38;18.38;;;22.70;99.90;;;;;;5017744;28;20696;-83
2023/08/18 11:12:57;;;;;;;19.05;17.13;;;22.50;99.90;;;;;;5025384;28;20207;-83
2023/08/18 11:15:25;;;;;;;19.20;17.30;;;22.80;99.90;;;;;;5042711;28;20206;-84
2023/08/18 11:17:53;;;;;;;16.75;15.15;;;23.00;99.90;;;;;;5028273;28;20210;-83
2023/08/18 11:20:21;;;;;;;16.95;15.25;;;23.50;99.90;;;;;;5027316;28;20219;-83
2023/08/18 11:22:51;;;;;;;15.00;13.60;;;23.60;99.90;;;;;;5026795;28;20194;-84
2023/08/18 11:25:21;;;;;;;14.45;13.05;;;23.60;99.90;;;;;;5042643;28;20203;-82
2023/08/18 11:27:51;;;;;;;15.57;14.10;;;23.70;99.90;;;;;;5042527;28;20219;-83
2023/08/18 11:30:20;;;;;;;16.13;14.43;;;23.90;99.90;;;;;;5025977;28;20222;-82
2023/08/18 11:32:48;;;;;;;16.15;14.55;;;24.00;99.90;;;;;;5026396;28;20202;-84
2023/08/18 11:35:18;;;;;;;19.45;17.55;;;23.90;99.90;;;;;;5037037;28;20194;-83
2023/08/18 11:37:47;;;;;;;17.80;16.20;;;23.90;99.90;;;;;;5032678;28;20198;-87
2023/08/18 11:40:30;;;;;;;18.13;16.33;;;24.00;99.90;;;;;;5019591;28;20214;-89
2023/08/18 11:42:57;;;;;;;19.75;17.83;;;24.30;99.90;;;;;;5052276;28;20186;-89
2023/08/18 11:45:26;;;;;;;20.58;18.60;;;24.50;99.90;;;;;;5037660;28;20210;-87
2023/08/18 11:48:03;;;;;;;19.25;17.35;;;24.70;99.90;;;;;;5034924;28;20209;-88
2023/08/18 11:50:32;;;;;;;22.80;20.38;;;24.90;99.90;;;;;;5031312;28;20208;-90
2023/08/18 11:53:00;;;;;;;21.75;19.55;;;24.70;99.90;;;;;;5038950;28;20189;-88
2023/08/18 11:55:31;;;;;;;19.38;17.45;;;24.70;99.90;;;;;;5047246;28;20198;-88
2023/08/18 11:57:59;;;;;;;21.10;18.95;;;25.00;99.90;;;;;;5055369;28;20186;-90
2023/08/18 12:00:35;;;;;;;21.63;19.35;;;25.20;99.90;;;;;;5037407;28;20198;-90
2023/08/18 12:03:04;;;;;;;20.58;18.48;;;25.10;99.90;;;;;;5039393;28;20198;-91
2023/08/18 12:05:32;;;;;;;19.88;17.98;;;25.20;99.90;;;;;;5036180;28;20191;-89
2023/08/18 12:08:01;;;;;;;19.83;18.02;;;25.30;99.90;;;;;;5034941;28;20195;-88
2023/08/18 12:10:28;;;;;;;21.35;19.20;;;25.40;99.90;;;;;;5040864;28;20573;-86
2023/08/18 12:12:57;;;;;;;24.85;22.40;;;25.40;99.90;;;;;;5017178;28;20206;-87
2023/08/18 12:15:26;;;;;;;20.08;18.17;;;25.50;99.90;;;;;;5006849;28;20199;-87
2023/08/18 12:17:55;;;;;;;19.20;17.20;;;25.70;99.90;;;;;;5017374;28;20207;-87
2023/08/18 12:20:24;;;;;;;17.92;16.23;;;25.80;99.90;;;;;;5027927;28;20214;-87
2023/08/18 12:22:52;;;;;;;17.15;15.52;;;26.10;99.90;;;;;;5013260;28;20214;-86
2023/08/18 12:25:22;;;;;;;17.98;15.95;;;26.00;99.90;;;;;;5015010;28;20203;-87
2023/08/18 12:27:50;;;;;;;16.80;15.10;;;26.20;99.90;;;;;;5027306;28;20198;-87
2023/08/18 12:30:19;;;;;;;14.60;13.20;;;26.30;99.90;;;;;;5019471;28;20576;-87
2023/08/18 12:32:48;;;;;;;16.58;14.88;;;26.60;99.90;;;;;;5018493;28;20207;-87
2023/08/18 12:35:18;;;;;;;16.75;15.10;;;26.80;99.90;;;;;;5019512;28;20199;-87
2023/08/18 12:37:45;;;;;;;15.00;13.65;;;26.80;99.90;;;;;;5014126;28;20192;-87